createdAt,value
2023-05-15T00:02:26.890Z,94960.66
2023-05-15T00:04:54.217Z,94953.38
2023-05-15T00:07:21.164Z,94923.81
2023-05-15T00:09:48.210Z,94945.13
2023-05-15T00:12:15.578Z,94942.94
2023-05-15T00:14:42.637Z,94957.97
2023-05-15T00:17:10.028Z,94956.88
2023-05-15T00:19:37.000Z,94984.19
2023-05-15T00:22:04.213Z,94981.72
2023-05-15T00:24:31.319Z,94981.78
2023-05-15T00:27:00.863Z,94981.25
2023-05-15T00:29:28.066Z,94977.84
2023-05-15T00:31:55.124Z,94980.66
2023-05-15T00:34:26.230Z,94976.13
2023-05-15T00:36:53.236Z,94982.88
2023-05-15T00:39:20.190Z,94983.94
2023-05-15T00:41:49.941Z,94971.16
2023-05-15T00:44:20.095Z,94960.59
2023-05-15T00:46:48.761Z,94965.81
2023-05-15T00:49:18.507Z,94983.72
2023-05-15T00:51:46.331Z,94985.34
2023-05-15T00:54:13.440Z,94976.31
2023-05-15T00:56:43.674Z,94981.81
2023-05-15T00:59:11.877Z,94976.38
2023-05-15T01:01:39.376Z,94974.19
2023-05-15T01:04:06.361Z,94985.56
2023-05-15T01:06:33.266Z,94980.06
2023-05-15T01:09:04.004Z,94970.78
2023-05-15T01:11:36.452Z,94973.19
2023-05-15T01:14:06.643Z,94990.09
2023-05-15T01:16:35.987Z,94980.81
2023-05-15T01:19:04.261Z,94970.88
2023-05-15T01:21:37.723Z,94965.38
2023-05-15T01:24:27.816Z,94956.94
2023-05-15T01:27:19.773Z,94964.41
2023-05-15T01:30:04.752Z,94945.75
2023-05-15T01:32:46.306Z,94937.00
2023-05-15T01:35:25.671Z,94937.00
2023-05-15T01:38:20.285Z,94966.66
2023-05-15T01:40:59.821Z,94946.84
2023-05-15T01:43:29.875Z,94937.75
2023-05-15T01:45:58.782Z,94923.91
2023-05-15T01:48:28.508Z,94927.16
2023-05-15T01:51:01.230Z,94935.91
2023-05-15T01:53:32.053Z,94947.75
2023-05-15T01:55:59.813Z,94924.63
2023-05-15T01:58:28.596Z,94927.22
2023-05-15T02:00:56.495Z,94923.84
2023-05-15T02:03:24.845Z,94939.84
2023-05-15T02:05:53.647Z,94940.50
2023-05-15T02:08:21.722Z,94929.81
2023-05-15T02:10:50.045Z,94937.25
2023-05-15T02:13:22.489Z,94946.69
2023-05-15T02:15:49.766Z,94949.06
2023-05-15T02:18:16.914Z,94934.97
2023-05-15T02:20:44.333Z,94926.09
2023-05-15T02:23:11.351Z,94930.09
2023-05-15T02:26:01.260Z,94916.50
2023-05-15T02:28:38.869Z,94931.50
2023-05-15T02:31:11.998Z,94919.00
2023-05-15T02:33:52.958Z,94906.78
2023-05-15T02:36:26.012Z,94906.56
2023-05-15T02:38:53.973Z,94902.72
2023-05-15T02:41:22.967Z,94909.13
2023-05-15T02:43:52.038Z,94910.13
2023-05-15T02:46:21.271Z,94932.75
2023-05-15T02:48:48.456Z,94927.66
2023-05-15T02:51:15.593Z,94922.38
2023-05-15T02:53:43.370Z,94913.75
2023-05-15T02:56:10.544Z,94897.41
2023-05-15T02:58:38.784Z,94898.09
2023-05-15T03:01:06.187Z,94904.81
2023-05-15T03:03:33.288Z,94868.88
2023-05-15T03:06:01.132Z,94912.09
2023-05-15T03:08:29.182Z,94899.34
2023-05-15T03:10:56.248Z,94928.72
2023-05-15T03:13:23.393Z,94929.09
2023-05-15T03:15:50.304Z,94923.47
2023-05-15T03:18:19.009Z,94922.66
2023-05-15T03:20:48.684Z,94921.53
2023-05-15T03:23:16.129Z,94925.38
2023-05-15T03:25:43.134Z,94930.91
2023-05-15T03:28:10.235Z,94930.66
2023-05-15T03:30:37.252Z,94925.19
2023-05-15T03:33:04.274Z,94913.16
2023-05-15T03:35:32.520Z,94909.38
2023-05-15T03:37:59.607Z,94912.03
2023-05-15T03:40:26.642Z,94907.88
2023-05-15T03:42:53.829Z,94901.09
2023-05-15T03:45:21.506Z,94905.50
2023-05-15T03:47:49.285Z,94903.53
2023-05-15T03:50:16.480Z,94892.84
2023-05-15T03:52:43.817Z,94900.84
2023-05-15T03:55:11.175Z,94917.63
2023-05-15T03:57:41.597Z,94919.97
2023-05-15T04:00:12.257Z,94887.13
2023-05-15T04:02:41.128Z,94915.16
2023-05-15T04:05:08.990Z,94920.72
2023-05-15T04:07:37.052Z,94914.44
2023-05-15T04:10:04.846Z,94909.66
2023-05-15T04:12:36.008Z,94911.13
2023-05-15T04:15:23.797Z,94910.00
2023-05-15T04:17:52.696Z,94938.69
2023-05-15T04:20:21.862Z,94927.00
2023-05-15T04:22:49.724Z,94935.00
2023-05-15T04:25:18.125Z,94931.88
2023-05-15T04:27:45.271Z,94924.25
2023-05-15T04:30:12.926Z,94922.06
2023-05-15T04:32:40.487Z,94932.22
2023-05-15T04:35:10.254Z,94921.66
2023-05-15T04:37:38.485Z,94913.81
2023-05-15T04:40:07.589Z,94905.53
2023-05-15T04:42:35.665Z,94904.47
2023-05-15T04:45:03.135Z,94899.06
2023-05-15T04:47:34.291Z,94890.50
2023-05-15T04:50:01.309Z,94894.44
2023-05-15T04:52:28.936Z,94913.88
2023-05-15T04:54:56.267Z,94904.00
2023-05-15T04:57:23.738Z,94909.47
2023-05-15T04:59:50.719Z,94909.34
2023-05-15T05:02:26.693Z,94908.91
2023-05-15T05:04:53.651Z,94905.19
2023-05-15T05:07:20.607Z,94895.84
2023-05-15T05:09:47.705Z,94879.53
2023-05-15T05:12:14.741Z,94886.75
2023-05-15T05:14:42.325Z,94893.25
2023-05-15T05:17:10.516Z,94880.34
2023-05-15T05:19:37.439Z,94887.41
2023-05-15T05:22:05.514Z,94899.06
2023-05-15T05:24:32.780Z,94881.50
2023-05-15T05:27:00.370Z,94890.16
2023-05-15T05:29:27.518Z,94889.44
2023-05-15T05:31:54.702Z,94901.50
2023-05-15T05:34:21.878Z,94895.66
2023-05-15T05:36:49.541Z,94889.88
2023-05-15T05:39:17.182Z,94894.66
2023-05-15T05:41:44.734Z,94882.47
2023-05-15T05:44:11.666Z,94881.72
2023-05-15T05:46:38.865Z,94882.84
2023-05-15T05:49:06.322Z,94894.63
2023-05-15T05:51:36.795Z,94881.91
2023-05-15T05:54:04.088Z,94883.03
2023-05-15T05:56:31.464Z,94877.72
2023-05-15T05:58:59.640Z,94878.63
2023-05-15T06:01:27.648Z,94892.59
2023-05-15T06:03:56.020Z,94883.00
2023-05-15T06:06:23.552Z,94885.94
2023-05-15T06:08:50.628Z,94891.91
2023-05-15T06:11:17.829Z,94892.47
2023-05-15T06:13:45.037Z,94892.22
2023-05-15T06:16:12.153Z,94881.22
2023-05-15T06:18:39.167Z,94883.13
2023-05-15T06:21:06.346Z,94889.56
2023-05-15T06:23:33.287Z,94879.66
2023-05-15T06:26:01.761Z,94886.88
2023-05-15T06:28:28.961Z,94884.47
2023-05-15T06:30:56.106Z,94886.38
2023-05-15T06:33:23.035Z,94883.97
2023-05-15T06:35:50.048Z,94879.34
2023-05-15T06:38:16.992Z,94897.81
2023-05-15T06:40:43.995Z,94898.16
2023-05-15T06:43:11.154Z,94894.53
2023-05-15T06:45:38.212Z,94897.69
2023-05-15T06:48:05.412Z,94894.63
2023-05-15T06:50:32.381Z,94905.47
2023-05-15T06:52:59.325Z,94906.50
2023-05-15T06:55:26.534Z,94885.53
2023-05-15T06:57:53.822Z,94905.56
2023-05-15T07:00:21.059Z,94889.16
2023-05-15T07:02:48.049Z,94916.03
2023-05-15T07:05:15.352Z,94878.66
2023-05-15T07:07:42.997Z,94907.97
2023-05-15T07:10:10.295Z,94902.75
2023-05-15T07:12:37.292Z,94838.41
2023-05-15T07:15:05.593Z,94889.31
2023-05-15T07:17:34.082Z,94902.97
2023-05-15T07:20:01.427Z,94905.03
2023-05-15T07:22:29.421Z,94892.38
2023-05-15T07:24:56.435Z,94903.06
2023-05-15T07:27:23.448Z,94909.06
2023-05-15T07:29:50.550Z,94910.34
2023-05-15T07:32:17.548Z,94905.84
2023-05-15T07:34:44.560Z,94899.91
2023-05-15T07:37:11.475Z,94903.72
2023-05-15T07:39:38.475Z,94888.19
2023-05-15T07:42:05.570Z,94905.84
2023-05-15T07:44:32.509Z,94898.47
2023-05-15T07:46:59.841Z,94890.09
2023-05-15T07:49:26.798Z,94895.91
2023-05-15T07:51:53.656Z,94848.47
2023-05-15T07:54:20.918Z,94888.06
2023-05-15T07:56:47.933Z,94868.06
2023-05-15T07:59:16.140Z,94924.56
2023-05-15T08:01:43.120Z,94917.44
2023-05-15T08:04:10.217Z,94928.34
2023-05-15T08:06:38.452Z,94934.66
2023-05-15T08:09:05.445Z,94931.66
2023-05-15T08:11:32.402Z,94931.97
2023-05-15T08:13:59.496Z,94920.88
2023-05-15T08:16:26.567Z,94928.66
2023-05-15T08:19:01.026Z,94926.28
2023-05-15T08:21:28.035Z,94927.38
2023-05-15T08:23:54.989Z,94923.34
2023-05-15T08:26:22.513Z,94929.56
2023-05-15T08:28:49.405Z,94919.31
2023-05-15T08:31:16.389Z,94919.78
2023-05-15T08:33:43.479Z,94922.16
2023-05-15T08:36:10.605Z,94923.16
2023-05-15T08:38:37.468Z,94915.91
2023-05-15T08:41:40.998Z,94915.41
2023-05-15T08:44:09.669Z,94902.63
2023-05-15T08:46:36.905Z,94901.38
2023-05-15T08:49:20.805Z,94892.31
2023-05-15T08:51:48.329Z,94893.06
2023-05-15T08:54:16.205Z,94909.75
2023-05-15T08:56:43.579Z,94892.06
2023-05-15T08:59:10.724Z,94896.13
2023-05-15T09:01:38.011Z,94897.38
2023-05-15T09:04:05.153Z,94890.19
2023-05-15T09:06:34.063Z,94864.47
2023-05-15T09:09:01.909Z,94883.97
2023-05-15T09:11:31.193Z,94884.06
2023-05-15T09:13:59.755Z,94895.34
2023-05-15T09:16:27.442Z,94903.41
2023-05-15T09:18:54.619Z,94884.22
2023-05-15T09:21:26.251Z,94889.47
2023-05-15T09:23:55.058Z,94868.69
2023-05-15T09:26:22.216Z,94866.81
2023-05-15T09:28:49.736Z,94868.59
2023-05-15T09:31:19.606Z,94872.28
2023-05-15T09:33:46.762Z,94871.22
2023-05-15T09:36:22.276Z,94861.09
2023-05-15T09:38:49.832Z,94859.97
2023-05-15T09:41:25.832Z,94855.88
2023-05-15T09:43:56.165Z,94850.59
2023-05-15T09:46:24.016Z,94836.41
2023-05-15T09:48:55.482Z,94833.09
2023-05-15T09:51:23.021Z,94837.25
2023-05-15T09:53:52.067Z,94834.03
2023-05-15T09:56:19.530Z,94829.31
2023-05-15T09:58:57.463Z,94837.63
2023-05-15T10:01:26.190Z,94832.13
2023-05-15T10:03:58.711Z,94829.91
2023-05-15T10:06:25.755Z,94827.06
2023-05-15T10:08:54.268Z,94829.56
2023-05-15T10:11:23.938Z,94834.94
2023-05-15T10:13:50.853Z,94820.13
2023-05-15T10:16:21.841Z,94818.44
2023-05-15T10:18:51.735Z,94819.53
2023-05-15T10:21:20.548Z,94836.13
2023-05-15T10:23:50.131Z,94845.81
2023-05-15T10:26:33.295Z,94835.69
2023-05-15T10:29:01.269Z,94846.72
2023-05-15T10:31:30.211Z,94840.56
2023-05-15T10:33:57.636Z,94854.06
2023-05-15T10:36:25.443Z,94867.69
2023-05-15T10:38:53.137Z,94878.47
2023-05-15T10:41:22.315Z,94876.66
2023-05-15T10:43:49.649Z,94870.09
2023-05-15T10:46:17.127Z,94869.34
2023-05-15T10:48:44.381Z,94870.31
2023-05-15T10:51:19.018Z,94871.78
2023-05-15T10:53:46.313Z,94869.00
2023-05-15T10:56:17.221Z,94867.25
2023-05-15T10:58:48.850Z,94860.94
2023-05-15T11:01:26.979Z,94859.09
2023-05-15T11:04:15.050Z,94853.97
2023-05-15T11:06:47.638Z,94844.78
2023-05-15T11:09:36.987Z,94849.69
2023-05-15T11:12:05.622Z,94860.56
2023-05-15T11:14:41.095Z,94846.25
2023-05-15T11:17:15.310Z,94846.59
2023-05-15T11:19:51.554Z,94836.56
2023-05-15T11:22:26.875Z,94831.16
2023-05-15T11:25:12.468Z,94843.22
2023-05-15T11:27:44.260Z,94845.00
2023-05-15T11:30:22.555Z,94835.66
2023-05-15T11:32:54.766Z,94847.56
2023-05-15T11:35:34.835Z,94865.34
2023-05-15T11:38:11.109Z,94838.28
2023-05-15T11:40:46.559Z,94838.00
2023-05-15T11:43:22.573Z,94819.78
2023-05-15T11:45:58.129Z,94813.22
2023-05-15T11:48:32.939Z,94814.94
2023-05-15T11:51:04.339Z,94810.41
2023-05-15T11:53:33.422Z,94810.88
2023-05-15T11:56:00.875Z,94820.41
2023-05-15T11:58:28.371Z,94810.38
2023-05-15T12:00:55.441Z,94809.97
2023-05-15T12:03:25.634Z,94806.06
2023-05-15T12:05:59.494Z,94807.72
2023-05-15T12:08:35.356Z,94807.00
2023-05-15T12:11:03.602Z,94812.81
2023-05-15T12:13:32.261Z,94813.91
2023-05-15T12:16:00.928Z,94804.53
2023-05-15T12:18:27.947Z,94808.28
2023-05-15T12:20:55.231Z,94808.13
2023-05-15T12:23:24.513Z,94804.91
2023-05-15T12:25:57.695Z,94806.13
2023-05-15T12:28:25.410Z,94780.50
2023-05-15T12:30:53.100Z,94763.88
2023-05-15T12:33:20.404Z,94759.69
2023-05-15T12:35:54.957Z,94755.16
2023-05-15T12:38:24.983Z,94753.03
2023-05-15T12:40:57.041Z,94740.53
2023-05-15T12:43:25.338Z,94724.63
2023-05-15T12:45:53.875Z,94731.34
2023-05-15T12:48:21.901Z,94715.09
2023-05-15T12:50:49.946Z,94714.31
2023-05-15T12:53:17.554Z,94729.84
2023-05-15T12:55:46.898Z,94718.50
2023-05-15T12:58:15.375Z,94725.88
2023-05-15T13:00:46.113Z,94722.69
2023-05-15T13:03:14.510Z,94740.41
2023-05-15T13:05:45.588Z,94741.53
2023-05-15T13:08:17.753Z,94732.41
2023-05-15T13:10:45.501Z,94728.09
2023-05-15T13:13:12.642Z,94714.94
2023-05-15T13:15:42.748Z,94720.97
2023-05-15T13:18:10.597Z,94720.63
2023-05-15T13:20:47.324Z,94714.00
2023-05-15T13:23:19.720Z,94713.31
2023-05-15T13:25:47.641Z,94712.44
2023-05-15T13:28:14.731Z,94699.63
2023-05-15T13:30:42.305Z,94707.03
2023-05-15T13:33:11.936Z,94714.91
2023-05-15T13:35:40.318Z,94717.84
2023-05-15T13:38:10.339Z,94723.66
2023-05-15T13:40:38.632Z,94705.69
2023-05-15T13:43:08.621Z,94724.44
2023-05-15T13:45:35.791Z,94732.66
2023-05-15T13:48:04.239Z,94730.69
2023-05-15T13:50:31.184Z,94724.47
2023-05-15T13:52:58.246Z,94715.75
2023-05-15T13:55:26.152Z,94724.78
2023-05-15T13:57:53.377Z,94731.00
2023-05-15T14:00:21.412Z,94724.28
2023-05-15T14:02:48.494Z,94714.47
2023-05-15T14:05:16.333Z,94723.59
2023-05-15T14:07:43.402Z,94744.38
2023-05-15T14:10:11.311Z,94731.13
2023-05-15T14:12:38.669Z,94730.75
2023-05-15T14:15:06.496Z,94730.97
2023-05-15T14:17:35.336Z,94727.91
2023-05-15T14:20:02.690Z,94713.84
2023-05-15T14:22:31.691Z,94729.38
2023-05-15T14:24:58.641Z,94728.69
2023-05-15T14:27:25.793Z,94729.94
2023-05-15T14:29:52.878Z,94726.88
2023-05-15T14:32:20.080Z,94724.97
2023-05-15T14:34:47.138Z,94719.84
2023-05-15T14:37:14.272Z,94719.84
2023-05-15T14:39:41.328Z,94709.88
2023-05-15T14:42:08.303Z,94718.78
2023-05-15T14:44:35.336Z,94713.25
2023-05-15T14:47:20.373Z,94700.69
2023-05-15T14:49:47.794Z,94709.53
2023-05-15T14:52:14.724Z,94695.63
2023-05-15T14:54:41.690Z,94689.56
2023-05-15T14:57:08.880Z,94690.53
2023-05-15T14:59:35.910Z,94689.94
2023-05-15T15:02:02.961Z,94689.66
2023-05-15T15:04:34.154Z,94676.34
2023-05-15T15:07:04.174Z,94675.47
2023-05-15T15:09:31.442Z,94678.59
2023-05-15T15:11:58.523Z,94671.78
2023-05-15T15:14:25.561Z,94670.38
2023-05-15T15:16:52.467Z,94665.41
2023-05-15T15:19:20.416Z,94669.69
2023-05-15T15:21:47.832Z,94664.84
2023-05-15T15:24:15.467Z,94670.09
2023-05-15T15:26:42.641Z,94657.31
2023-05-15T15:29:09.620Z,94657.91
2023-05-15T15:31:36.603Z,94665.59
2023-05-15T15:34:05.589Z,94658.69
2023-05-15T15:36:32.870Z,94655.94
2023-05-15T15:38:59.676Z,94654.06
2023-05-15T15:41:26.681Z,94637.25
2023-05-15T15:43:53.833Z,94656.09
2023-05-15T15:46:20.931Z,94669.50
2023-05-15T15:48:48.525Z,94664.50
2023-05-15T15:51:16.276Z,94663.50
2023-05-15T15:53:43.134Z,94654.94
2023-05-15T15:56:10.067Z,94655.44
2023-05-15T15:58:36.956Z,94657.38
2023-05-15T16:01:04.131Z,94657.25
2023-05-15T16:03:31.599Z,94672.28
2023-05-15T16:06:00.138Z,94687.50
2023-05-15T16:08:27.373Z,94676.50
2023-05-15T16:11:13.022Z,94673.13
2023-05-15T16:13:41.061Z,94675.84
2023-05-15T16:16:08.653Z,94676.50
2023-05-15T16:18:35.757Z,94683.88
2023-05-15T16:21:02.769Z,94665.66
2023-05-15T16:23:33.978Z,94689.91
2023-05-15T16:26:02.383Z,94694.97
2023-05-15T16:28:29.278Z,94692.44
2023-05-15T16:30:56.770Z,94693.16
2023-05-15T16:33:23.973Z,94705.81
2023-05-15T16:35:51.982Z,94712.28
2023-05-15T16:38:20.078Z,94707.94
2023-05-15T16:40:47.107Z,94717.53
2023-05-15T16:43:14.313Z,94716.00
2023-05-15T16:45:41.293Z,94720.53
2023-05-15T16:48:08.496Z,94718.06
2023-05-15T16:50:36.454Z,94724.63
2023-05-15T16:53:04.965Z,94714.16
2023-05-15T16:55:32.439Z,94719.34
2023-05-15T16:57:59.637Z,94702.69
2023-05-15T17:00:27.024Z,94706.63
2023-05-15T17:02:54.844Z,94718.66
2023-05-15T17:05:21.978Z,94707.06
2023-05-15T17:07:48.913Z,94711.84
2023-05-15T17:10:16.277Z,94698.03
2023-05-15T17:12:43.381Z,94705.16
2023-05-15T17:15:11.551Z,94717.28
2023-05-15T17:17:38.468Z,94708.09
2023-05-15T17:20:06.571Z,94715.28
2023-05-15T17:22:34.370Z,94697.66
2023-05-15T17:25:01.391Z,94714.88
2023-05-15T17:27:31.293Z,94715.69
2023-05-15T17:29:58.842Z,94726.66
2023-05-15T17:32:25.908Z,94727.28
2023-05-15T17:34:53.059Z,94712.25
2023-05-15T17:37:19.958Z,94729.41
2023-05-15T17:39:46.961Z,94725.34
2023-05-15T17:42:13.919Z,94709.47
2023-05-15T17:44:40.961Z,94722.59
2023-05-15T17:47:09.830Z,94727.28
2023-05-15T17:49:38.157Z,94746.63
2023-05-15T17:52:06.086Z,94753.44
2023-05-15T17:54:33.187Z,94758.00
2023-05-15T17:57:00.357Z,94760.00
2023-05-15T17:59:27.591Z,94747.31
2023-05-15T18:01:54.701Z,94749.22
2023-05-15T18:04:21.771Z,94735.25
2023-05-15T18:06:49.112Z,94722.22
2023-05-15T18:09:23.210Z,94742.34
2023-05-15T18:11:51.599Z,94739.38
2023-05-15T18:14:21.589Z,94694.44
2023-05-15T18:16:48.710Z,94711.53
2023-05-15T18:19:16.155Z,94715.19
2023-05-15T18:21:43.090Z,94717.13
2023-05-15T18:24:10.117Z,94726.47
2023-05-15T18:26:37.055Z,94714.28
2023-05-15T18:29:04.415Z,94735.47
2023-05-15T18:31:31.539Z,94750.03
2023-05-15T18:33:58.494Z,94737.97
2023-05-15T18:36:25.881Z,94738.28
2023-05-15T18:38:52.945Z,94752.00
2023-05-15T18:41:19.916Z,94762.19
2023-05-15T18:43:47.051Z,94750.69
2023-05-15T18:46:14.061Z,94758.97
2023-05-15T18:48:41.147Z,94736.47
2023-05-15T18:51:09.666Z,94744.53
2023-05-15T18:53:36.991Z,94742.44
2023-05-15T18:56:04.599Z,94752.63
2023-05-15T18:58:31.743Z,94749.09
2023-05-15T19:00:58.898Z,94751.28
2023-05-15T19:03:26.304Z,94762.28
2023-05-15T19:05:53.348Z,94748.91
2023-05-15T19:08:20.613Z,94767.16
2023-05-15T19:10:48.473Z,94768.78
2023-05-15T19:13:15.519Z,94762.34
2023-05-15T19:15:50.792Z,94770.63
2023-05-15T19:18:18.343Z,94766.91
2023-05-15T19:20:49.693Z,94774.69
2023-05-15T19:23:16.698Z,94774.41
2023-05-15T19:25:45.042Z,94774.69
2023-05-15T19:28:13.158Z,94726.22
2023-05-15T19:30:40.478Z,94763.72
2023-05-15T19:33:07.632Z,94776.06
2023-05-15T19:35:36.702Z,94782.22
2023-05-15T19:38:04.665Z,94784.94
2023-05-15T19:40:31.612Z,94788.66
2023-05-15T19:42:58.622Z,94792.72
2023-05-15T19:45:25.714Z,94772.06
2023-05-15T19:47:53.170Z,94791.13
2023-05-15T19:50:20.481Z,94786.56
2023-05-15T19:52:47.605Z,94794.59
2023-05-15T19:55:15.435Z,94788.69
2023-05-15T19:57:44.917Z,94796.47
2023-05-15T20:00:12.812Z,94791.38
2023-05-15T20:02:41.473Z,94790.56
2023-05-15T20:05:09.418Z,94786.25
2023-05-15T20:07:37.006Z,94781.16
2023-05-15T20:10:04.766Z,94784.09
2023-05-15T20:12:31.828Z,94779.28
2023-05-15T20:14:58.753Z,94778.75
2023-05-15T20:17:25.737Z,94764.56
2023-05-15T20:19:53.879Z,94773.09
2023-05-15T20:22:20.721Z,94764.81
2023-05-15T20:24:48.255Z,94762.91
2023-05-15T20:27:15.367Z,94759.97
2023-05-15T20:29:42.267Z,94750.84
2023-05-15T20:32:09.239Z,94758.56
2023-05-15T20:34:36.929Z,94754.06
2023-05-15T20:37:03.910Z,94735.28
2023-05-15T20:39:31.178Z,94742.81
2023-05-15T20:41:58.081Z,94734.28
2023-05-15T20:44:25.120Z,94728.59
2023-05-15T20:46:52.050Z,94729.16
2023-05-15T20:49:19.085Z,94704.75
2023-05-15T20:51:48.578Z,94721.91
2023-05-15T20:54:16.160Z,94723.78
2023-05-15T20:56:43.253Z,94716.25
2023-05-15T20:59:10.349Z,94719.75
2023-05-15T21:01:37.199Z,94722.44
2023-05-15T21:04:04.507Z,94708.75
2023-05-15T21:06:31.697Z,94700.16
2023-05-15T21:08:58.618Z,94717.63
2023-05-15T21:11:25.823Z,94717.59
2023-05-15T21:13:52.793Z,94713.59
2023-05-15T21:16:19.764Z,94723.53
2023-05-15T21:18:48.901Z,94718.97
2023-05-15T21:21:16.619Z,94718.72
2023-05-15T21:23:43.674Z,94727.03
2023-05-15T21:26:11.005Z,94718.75
2023-05-15T21:28:37.919Z,94721.69
2023-05-15T21:31:11.668Z,94707.75
2023-05-15T21:33:38.729Z,94720.88
2023-05-15T21:36:06.019Z,94721.13
2023-05-15T21:38:33.080Z,94716.59
2023-05-15T21:41:01.123Z,94716.59
2023-05-15T21:43:28.251Z,94722.19
2023-05-15T21:45:56.135Z,94722.19
2023-05-15T21:48:23.282Z,94706.41
2023-05-15T21:50:50.796Z,94703.41
2023-05-15T21:53:17.690Z,94693.81
2023-05-15T21:55:44.665Z,94709.31
2023-05-15T21:58:11.674Z,94713.34
2023-05-15T22:00:39.915Z,94700.25
2023-05-15T22:03:06.920Z,94701.78
2023-05-15T22:05:34.386Z,94697.25
2023-05-15T22:08:01.248Z,94722.97
2023-05-15T22:10:28.485Z,94717.06
2023-05-15T22:12:55.513Z,94706.59
2023-05-15T22:15:22.871Z,94726.16
2023-05-15T22:17:50.406Z,94738.47
2023-05-15T22:20:19.027Z,94725.56
2023-05-15T22:22:46.368Z,94737.94
2023-05-15T22:25:13.721Z,94737.41
2023-05-15T22:27:41.073Z,94735.53
2023-05-15T22:30:08.828Z,94731.53
2023-05-15T22:32:35.957Z,94720.28
2023-05-15T22:35:03.624Z,94719.22
2023-05-15T22:37:31.824Z,94719.44
2023-05-15T22:39:58.892Z,94718.63
2023-05-15T22:42:27.843Z,94714.34
2023-05-15T22:44:58.002Z,94720.78
2023-05-15T22:47:28.255Z,94725.88
2023-05-15T22:49:55.227Z,94722.66
2023-05-15T22:52:22.667Z,94718.63
2023-05-15T22:54:49.754Z,94715.16
2023-05-15T22:57:16.752Z,94725.88
2023-05-15T22:59:44.072Z,94713.00
2023-05-15T23:02:11.151Z,94720.78
2023-05-15T23:04:38.030Z,94715.72
2023-05-15T23:07:05.143Z,94711.94
2023-05-15T23:09:32.025Z,94696.94
2023-05-15T23:11:59.024Z,94714.03
2023-05-15T23:14:25.962Z,94714.06
2023-05-15T23:16:52.914Z,94711.34
2023-05-15T23:19:19.927Z,94709.47
2023-05-15T23:21:47.294Z,94706.56
2023-05-15T23:24:14.330Z,94709.25
2023-05-15T23:26:41.268Z,94710.56
2023-05-15T23:29:08.553Z,94696.63
2023-05-15T23:31:35.627Z,94704.41
2023-05-15T23:34:02.545Z,94703.63
2023-05-15T23:36:29.548Z,94707.03
2023-05-15T23:38:56.500Z,94703.59
2023-05-15T23:41:23.486Z,94697.97
2023-05-15T23:43:50.537Z,94694.25
2023-05-15T23:46:18.194Z,94695.84
2023-05-15T23:48:45.090Z,94688.66
2023-05-15T23:51:12.156Z,94669.66
2023-05-15T23:53:39.006Z,94686.81
2023-05-15T23:56:07.088Z,94678.78
2023-05-15T23:58:34.307Z,94683.06
